Time;durP1;ratioP1;P1;durP2;ratioP2;P2;SDS_P1;SDS_P2;PMS_P1;PMS_P2;Temp;Humidity;BMP_temperature;BMP_pressure;BME280_temperature;BME280_humidity;BME280_pressure;Samples;Min_cycle;Max_cycle;Signal;HPM_P1;HPM_P2
2022/02/02 00:00:54;;;;;;;74.63;12.20;;;6.30;84.40;;;;;;5056343;28;20197;-90
2022/02/02 00:03:24;;;;;;;62.73;10.20;;;6.30;84.20;;;;;;5038977;28;20251;-90
2022/02/02 00:05:59;;;;;;;39.20;9.93;;;6.20;84.50;;;;;;5056588;28;20182;-90
2022/02/02 00:09:11;;;;;;;40.60;9.33;;;6.30;84.70;;;;;;5038301;28;20555;-90
2022/02/02 00:13:55;;;;;;;30.77;7.90;;;6.20;85.00;;;;;;5057054;28;20175;-90
2022/02/02 00:19:15;;;;;;;52.37;9.63;;;6.20;84.70;;;;;;5057049;28;20176;-90
2022/02/02 00:21:47;;;;;;;54.23;9.93;;;6.30;84.30;;;;;;5038569;28;20591;-90
2022/02/02 00:24:27;;;;;;;58.27;9.87;;;6.20;84.50;;;;;;5055866;28;20612;-90
2022/02/02 00:26:57;;;;;;;35.00;6.70;;;6.20;84.50;;;;;;5038051;28;20167;-90
2022/02/02 00:29:29;;;;;;;51.80;8.67;;;6.20;84.50;;;;;;5036876;28;20594;-90
2022/02/02 00:32:03;;;;;;;75.27;10.37;;;6.20;84.30;;;;;;5037649;28;20226;-91
2022/02/02 00:34:31;;;;;;;65.13;12.90;;;6.10;84.40;;;;;;5038415;28;20201;-90
2022/02/02 00:36:58;;;;;;;59.17;10.80;;;6.00;84.70;;;;;;5055828;28;20278;-90
2022/02/02 00:39:25;;;;;;;37.97;9.37;;;6.00;85.10;;;;;;5038132;28;20176;-90
2022/02/02 00:41:53;;;;;;;68.10;10.63;;;5.90;85.40;;;;;;5037789;28;20195;-91
2022/02/02 00:44:20;;;;;;;64.97;10.37;;;6.00;85.40;;;;;;5055598;28;20258;-90
2022/02/02 00:46:46;;;;;;;37.73;9.87;;;5.90;85.60;;;;;;5055562;28;20177;-90
2022/02/02 00:49:13;;;;;;;76.50;12.47;;;5.90;85.90;;;;;;5055504;28;20646;-91
2022/02/02 00:51:44;;;;;;;40.37;7.10;;;5.80;86.20;;;;;;5055524;28;20281;-90
2022/02/02 00:54:11;;;;;;;59.60;10.90;;;5.90;86.20;;;;;;5037760;28;20178;-90
2022/02/02 00:56:37;;;;;;;57.80;11.70;;;5.90;86.00;;;;;;5055165;28;20230;-90
2022/02/02 00:59:03;;;;;;;64.17;11.40;;;5.90;85.90;;;;;;5055229;28;20167;-90
2022/02/02 01:01:28;;;;;;;58.87;9.73;;;5.80;86.00;;;;;;5037225;28;20680;-90
2022/02/02 01:03:54;;;;;;;40.70;8.63;;;5.90;85.50;;;;;;5037448;28;20203;-90
2022/02/02 01:06:22;;;;;;;48.03;9.00;;;6.00;84.70;;;;;;5037519;28;20183;-90
2022/02/02 01:11:33;;;;;;;51.00;11.27;;;5.90;85.00;;;;;;5055219;28;20237;-89
2022/02/02 01:14:54;;;;;;;38.50;8.90;;;6.00;84.20;;;;;;5055002;28;20214;-89
2022/02/02 01:19:40;;;;;;;42.10;8.93;;;5.90;84.60;;;;;;5039147;28;20190;-90
2022/02/02 01:30:06;;;;;;;39.93;8.60;;;5.70;84.10;;;;;;5054904;28;20251;-91
2022/02/02 01:32:31;;;;;;;34.83;6.13;;;5.70;83.50;;;;;;5036937;28;20267;-91
2022/02/02 01:34:57;;;;;;;40.63;8.33;;;5.70;83.50;;;;;;5054840;28;20176;-91
2022/02/02 01:37:23;;;;;;;34.13;6.37;;;5.60;83.40;;;;;;5036841;28;20286;-90
2022/02/02 01:39:57;;;;;;;49.10;9.40;;;5.70;83.30;;;;;;5036590;28;20179;-91
2022/02/02 01:42:25;;;;;;;25.90;5.90;;;5.60;83.50;;;;;;5036610;28;20170;-90
2022/02/02 01:45:02;;;;;;;48.67;9.03;;;5.70;83.40;;;;;;5037126;28;20181;-91
2022/02/02 01:47:35;;;;;;;43.43;7.17;;;5.70;84.00;;;;;;5036738;28;20171;-90
2022/02/02 01:55:00;;;;;;;24.17;5.23;;;5.60;84.40;;;;;;5054350;28;20203;-89
2022/02/02 02:00:08;;;;;;;38.80;7.47;;;5.50;84.50;;;;;;5054665;28;20216;-90
2022/02/02 02:02:35;;;;;;;36.63;7.23;;;5.50;84.90;;;;;;5054482;28;20234;-90
2022/02/02 02:05:02;;;;;;;31.97;6.90;;;5.50;84.80;;;;;;5037015;28;20180;-90
2022/02/02 02:07:28;;;;;;;40.57;7.50;;;5.50;84.80;;;;;;5054417;28;20166;-90
2022/02/02 02:09:57;;;;;;;39.23;7.93;;;5.50;84.60;;;;;;5036158;28;20727;-90
2022/02/02 02:12:23;;;;;;;59.20;8.97;;;5.60;84.20;;;;;;5037425;28;20187;-90
2022/02/02 02:17:15;;;;;;;48.70;8.30;;;5.70;83.30;;;;;;5054605;28;20202;-90
2022/02/02 02:19:45;;;;;;;53.10;8.37;;;5.60;83.30;;;;;;5036189;28;20188;-91
2022/02/02 02:22:14;;;;;;;39.67;8.37;;;5.60;83.40;;;;;;5054227;28;20234;-90
2022/02/02 02:24:41;;;;;;;42.43;7.30;;;5.50;83.50;;;;;;5036094;28;20232;-90
2022/02/02 02:27:08;;;;;;;55.43;9.70;;;5.50;83.40;;;;;;5036051;28;20175;-91
2022/02/02 02:32:20;;;;;;;35.90;6.90;;;5.60;83.50;;;;;;5053788;28;20207;-90
2022/02/02 02:37:41;;;;;;;33.43;6.73;;;5.50;83.90;;;;;;5053488;28;20196;-90
2022/02/02 02:56:40;;;;;;;27.23;6.87;;;5.80;82.20;;;;;;5077426;22;20238;-90
2022/02/02 02:59:13;;;;;;;19.93;5.27;;;5.80;82.00;;;;;;5020506;28;20237;-90
2022/02/02 03:59:01;;;;;;;40.47;8.03;;;5.60;84.20;;;;;;5056131;28;20537;-91
2022/02/02 04:04:12;;;;;;;31.63;6.80;;;5.60;84.20;;;;;;5056075;28;20160;-90
2022/02/02 04:06:55;;;;;;;33.90;6.80;;;5.70;84.00;;;;;;5038503;28;20198;-91
2022/02/02 04:09:21;;;;;;;44.87;8.87;;;5.70;84.10;;;;;;5038095;28;20632;-91
2022/02/02 04:11:56;;;;;;;37.50;5.97;;;5.70;84.20;;;;;;5038693;28;20190;-91
2022/02/02 04:15:34;;;;;;;35.57;7.43;;;5.70;84.90;;;;;;5038778;28;20208;-90
2022/02/02 05:00:58;;;;;;;46.47;7.97;;;5.70;86.00;;;;;;5055286;28;20168;-92
2022/02/02 05:05:44;;;;;;;25.00;5.47;;;5.70;86.30;;;;;;5055191;28;20169;-92
2022/02/02 05:08:24;;;;;;;46.17;7.47;;;5.70;86.20;;;;;;5036976;28;20736;-91
2022/02/02 05:11:14;;;;;;;44.03;8.80;;;5.70;85.90;;;;;;5055022;28;20159;-91
2022/02/02 05:16:36;;;;;;;44.93;6.77;;;5.60;86.20;;;;;;5054413;28;20189;-90
2022/02/02 05:42:13;;;;;;;17.47;4.40;;;5.30;86.10;;;;;;5054974;28;20632;-91
2022/02/02 05:51:33;;;;;;;27.90;5.13;;;5.30;85.70;;;;;;5054325;28;20171;-91
2022/02/02 05:53:59;;;;;;;22.17;5.23;;;5.30;85.60;;;;;;5036659;28;20547;-92
2022/02/02 05:56:26;;;;;;;31.53;6.00;;;5.30;85.60;;;;;;5035707;28;20209;-91
2022/02/02 05:58:51;;;;;;;24.83;5.40;;;5.20;85.90;;;;;;5036117;28;20186;-91
2022/02/02 06:01:17;;;;;;;22.20;5.83;;;5.20;86.20;;;;;;5036922;28;20182;-91
2022/02/02 06:03:54;;;;;;;33.33;6.93;;;5.30;86.10;;;;;;5035815;28;20257;-91
2022/02/02 06:06:24;;;;;;;24.00;6.53;;;5.30;85.80;;;;;;5035932;28;20209;-91
2022/02/02 06:08:52;;;;;;;30.90;5.47;;;5.30;85.90;;;;;;5035786;28;20172;-91
2022/02/02 06:11:23;;;;;;;31.63;4.93;;;5.20;86.00;;;;;;5035775;28;20188;-91
2022/02/02 06:13:52;;;;;;;22.93;4.37;;;5.20;86.40;;;;;;5035688;28;20257;-91
2022/02/02 06:16:20;;;;;;;29.00;5.67;;;5.20;86.40;;;;;;5035536;28;20198;-91
2022/02/02 06:18:53;;;;;;;29.53;5.60;;;5.20;86.10;;;;;;5035866;28;20572;-92
2022/02/02 06:21:25;;;;;;;22.97;4.87;;;5.20;85.70;;;;;;5035711;28;20243;-91
2022/02/02 06:24:07;;;;;;;28.93;5.23;;;5.20;85.50;;;;;;5035642;28;20171;-91
2022/02/02 06:26:38;;;;;;;26.63;5.37;;;5.20;84.90;;;;;;5052359;28;20189;-91
2022/02/02 06:29:08;;;;;;;29.80;6.17;;;5.10;85.10;;;;;;5036119;28;20697;-91
2022/02/02 06:31:35;;;;;;;32.50;6.07;;;5.10;85.20;;;;;;5035608;28;20272;-91
2022/02/02 06:34:03;;;;;;;26.20;4.87;;;5.00;85.40;;;;;;5035544;28;20206;-92
2022/02/02 06:36:30;;;;;;;23.40;4.47;;;5.00;85.50;;;;;;5035230;28;20572;-91
2022/02/02 06:38:56;;;;;;;27.33;4.77;;;5.00;85.50;;;;;;5035331;28;20169;-91
2022/02/02 06:41:28;;;;;;;19.23;4.47;;;5.00;85.60;;;;;;5036300;28;20221;-91
2022/02/02 06:43:54;;;;;;;21.33;4.83;;;4.90;85.90;;;;;;5035365;28;20185;-92
2022/02/02 06:46:23;;;;;;;34.50;6.00;;;4.90;86.00;;;;;;5053467;28;20180;-91
2022/02/02 06:48:48;;;;;;;28.80;4.30;;;4.90;86.00;;;;;;5035589;28;20173;-91
2022/02/02 06:51:26;;;;;;;29.03;4.77;;;4.90;86.50;;;;;;5035625;28;20180;-92
2022/02/02 06:54:09;;;;;;;23.73;5.13;;;4.90;86.70;;;;;;5036196;28;20169;-91
2022/02/02 06:59:13;;;;;;;31.60;5.40;;;4.90;86.90;;;;;;5053320;28;20156;-91
2022/02/02 07:02:11;;;;;;;27.67;4.83;;;4.90;87.10;;;;;;5035171;28;20179;-91
2022/02/02 07:05:11;;;;;;;39.07;7.53;;;4.90;87.10;;;;;;5052653;28;20200;-90
2022/02/02 07:08:01;;;;;;;27.87;5.13;;;4.90;87.20;;;;;;5035239;28;20204;-91
2022/02/02 07:16:20;;;;;;;17.83;5.23;;;4.90;87.10;;;;;;5022134;28;20193;-90
2022/02/02 07:21:41;;;;;;;30.60;5.53;;;5.00;87.00;;;;;;5053876;28;20157;-88
2022/02/02 07:24:37;;;;;;;35.47;6.13;;;4.90;87.30;;;;;;5035184;28;20563;-89
2022/02/02 07:32:23;;;;;;;37.10;6.13;;;5.00;86.60;;;;;;5053583;28;20171;-91
2022/02/02 07:35:49;;;;;;;43.77;7.10;;;5.00;86.30;;;;;;5034948;28;20203;-91
2022/02/02 07:38:11;;;;;;;34.70;6.17;;;5.10;85.70;;;;;;5050832;28;20235;-89
2022/02/02 07:40:41;;;;;;;30.53;6.20;;;5.10;85.10;;;;;;5038806;28;20177;-90
2022/02/02 07:43:18;;;;;;;22.67;5.70;;;5.00;85.10;;;;;;5039389;28;20180;-92
2022/02/02 07:45:46;;;;;;;19.73;6.27;;;5.00;84.80;;;;;;5039338;28;20223;-92
2022/02/02 07:48:12;;;;;;;29.37;6.07;;;5.00;84.10;;;;;;5039059;28;20197;-92
2022/02/02 07:50:37;;;;;;;16.27;4.47;;;5.10;83.70;;;;;;5039116;28;20205;-92
2022/02/02 07:53:10;;;;;;;31.20;5.83;;;5.10;83.80;;;;;;5038531;28;20186;-91
2022/02/02 07:55:38;;;;;;;32.83;5.33;;;5.00;83.90;;;;;;5038843;28;20193;-91
2022/02/02 07:58:05;;;;;;;30.07;5.93;;;5.00;83.80;;;;;;5038365;28;20231;-92
2022/02/02 08:00:32;;;;;;;28.40;5.33;;;5.00;84.10;;;;;;5038716;28;20596;-91
2022/02/02 08:03:07;;;;;;;28.50;6.43;;;5.00;83.90;;;;;;5038449;28;20264;-89
2022/02/02 08:05:42;;;;;;;30.10;5.07;;;5.00;84.00;;;;;;5038480;28;20554;-91
2022/02/02 08:08:48;;;;;;;27.97;5.30;;;5.00;84.40;;;;;;5038644;28;20247;-92
2022/02/02 08:11:05;;;;;;;28.57;5.00;;;5.10;84.40;;;;;;5052896;28;20611;-91
2022/02/02 08:13:46;;;;;;;25.67;4.90;;;5.00;84.50;;;;;;5038896;28;20181;-88
2022/02/02 08:16:14;;;;;;;36.23;6.03;;;5.10;84.40;;;;;;5038408;28;20746;-90
2022/02/02 08:18:44;;;;;;;25.87;5.37;;;5.20;84.30;;;;;;5038297;28;20228;-90
2022/02/02 08:21:10;;;;;;;31.50;5.57;;;5.10;84.60;;;;;;5056190;28;20707;-90
2022/02/02 08:23:35;;;;;;;21.83;5.17;;;5.10;84.80;;;;;;5038348;28;20205;-91
2022/02/02 08:26:04;;;;;;;38.80;5.50;;;5.10;84.80;;;;;;5037925;28;20230;-91
2022/02/02 08:28:30;;;;;;;26.87;5.40;;;5.20;84.40;;;;;;5037937;28;20196;-91
2022/02/02 08:30:56;;;;;;;31.43;6.77;;;5.20;84.60;;;;;;5037856;28;20698;-91
2022/02/02 08:33:27;;;;;;;33.97;6.37;;;5.20;84.60;;;;;;5038060;28;20176;-91
2022/02/02 08:35:55;;;;;;;34.50;5.80;;;5.20;84.70;;;;;;5038279;28;20189;-91
2022/02/02 08:40:56;;;;;;;27.20;5.90;;;5.20;84.40;;;;;;5055207;28;20264;-91
2022/02/02 08:43:24;;;;;;;30.37;5.20;;;5.20;84.60;;;;;;5038624;28;20169;-90
2022/02/02 08:45:50;;;;;;;32.67;5.20;;;5.20;84.30;;;;;;5055354;28;20655;-91
2022/02/02 08:48:24;;;;;;;25.57;5.77;;;5.20;84.00;;;;;;5037340;28;20285;-91
2022/02/02 08:50:59;;;;;;;21.57;4.83;;;5.30;83.60;;;;;;5036544;28;20162;-91
2022/02/02 08:58:31;;;;;;;31.23;6.07;;;5.30;81.60;;;;;;5064301;22;20232;-91
2022/02/02 09:00:59;;;;;;;30.90;6.00;;;5.20;81.90;;;;;;5017270;28;20178;-90
2022/02/02 09:06:10;;;;;;;35.70;5.90;;;5.20;82.20;;;;;;5035095;28;20217;-90
2022/02/02 09:08:36;;;;;;;27.87;7.30;;;5.20;82.10;;;;;;5032724;28;20621;-91
2022/02/02 09:24:30;;;;;;;39.80;5.50;;;5.40;83.20;;;;;;5054551;28;20178;-91
2022/02/02 09:32:47;;;;;;;27.23;5.63;;;5.50;83.60;;;;;;5054447;28;20643;-90
2022/02/02 09:35:11;;;;;;;25.30;4.03;;;5.50;83.80;;;;;;5056027;28;20174;-93
2022/02/02 09:37:38;;;;;;;27.97;5.40;;;5.50;83.90;;;;;;5038404;28;20267;-91
2022/02/02 09:40:31;;;;;;;28.93;4.83;;;5.60;83.50;;;;;;5036506;28;20177;-90
2022/02/02 09:42:53;;;;;;;24.17;4.80;;;5.70;82.80;;;;;;5053732;28;20303;-91
2022/02/02 09:45:20;;;;;;;24.07;4.53;;;5.70;82.40;;;;;;5036443;28;20170;-91
2022/02/02 09:47:55;;;;;;;26.83;4.40;;;5.80;80.80;;;;;;5036084;28;20286;-91
2022/02/02 09:50:28;;;;;;;25.57;5.57;;;5.80;81.10;;;;;;5036888;28;20163;-91
2022/02/02 09:52:58;;;;;;;22.77;5.20;;;5.80;81.00;;;;;;5036328;28;20628;-91
2022/02/02 09:55:55;;;;;;;22.00;4.43;;;5.90;80.60;;;;;;5036065;28;20189;-91
2022/02/02 09:58:57;;;;;;;30.50;5.97;;;6.10;80.50;;;;;;5036076;28;20209;-91
2022/02/02 10:01:41;;;;;;;28.83;5.03;;;6.10;79.60;;;;;;5053324;28;20178;-91
2022/02/02 10:13:45;;;;;;;25.23;5.67;;;6.30;78.70;;;;;;5053792;28;20190;-91
2022/02/02 10:16:19;;;;;;;26.93;4.47;;;6.30;78.00;;;;;;5053137;28;20608;-91
2022/02/02 10:18:45;;;;;;;18.83;4.00;;;6.40;77.70;;;;;;5036383;28;20194;-93
2022/02/02 10:21:10;;;;;;;26.17;5.03;;;6.40;77.60;;;;;;5036371;28;20180;-93
2022/02/02 10:23:45;;;;;;;23.40;3.97;;;6.50;78.10;;;;;;5043756;28;20171;-94
2022/02/02 10:26:22;;;;;;;29.67;4.83;;;6.60;77.10;;;;;;5062898;28;20210;-91
2022/02/02 10:28:49;;;;;;;36.37;5.27;;;6.70;77.00;;;;;;5035592;28;20230;-91
2022/02/02 10:31:16;;;;;;;19.60;4.93;;;6.70;76.40;;;;;;5053232;28;20272;-90
2022/02/02 10:33:41;;;;;;;21.30;5.90;;;6.80;76.30;;;;;;5035265;28;20184;-91
2022/02/02 10:36:17;;;;;;;27.83;4.83;;;6.70;76.60;;;;;;5035331;28;20183;-90
2022/02/02 10:38:55;;;;;;;28.30;5.13;;;6.80;77.30;;;;;;5035335;28;20195;-90
2022/02/02 10:44:02;;;;;;;32.80;6.33;;;6.90;77.50;;;;;;5053508;28;20160;-91
2022/02/02 10:46:36;;;;;;;25.23;4.23;;;7.00;77.00;;;;;;5035457;28;20171;-91
2022/02/02 10:52:32;;;;;;;23.57;5.13;;;6.90;78.10;;;;;;5053575;28;20160;-91
2022/02/02 10:54:51;;;;;;;24.53;4.47;;;7.00;77.90;;;;;;5052596;28;20666;-90
2022/02/02 10:57:36;;;;;;;15.40;3.03;;;7.10;77.20;;;;;;5052883;28;20242;-91
2022/02/02 11:00:26;;;;;;;18.00;3.80;;;7.10;75.90;;;;;;5053310;28;20148;-92
2022/02/02 11:08:21;;;;;;;22.83;4.80;;;7.10;76.60;;;;;;5053280;28;20199;-91
2022/02/02 11:10:50;;;;;;;27.17;5.20;;;7.20;77.10;;;;;;5035123;28;20294;-91
2022/02/02 11:13:16;;;;;;;27.40;5.87;;;7.20;76.30;;;;;;5037778;28;20262;-92
2022/02/02 11:15:49;;;;;;;18.50;4.00;;;7.30;76.50;;;;;;5039032;28;20229;-91
2022/02/02 11:18:23;;;;;;;26.13;4.83;;;7.20;76.10;;;;;;5039097;28;20211;-91
2022/02/02 11:20:49;;;;;;;21.77;3.43;;;7.00;75.40;;;;;;5039413;28;20167;-91
2022/02/02 11:23:15;;;;;;;31.67;5.17;;;7.20;76.90;;;;;;5038734;28;20172;-91
2022/02/02 11:25:59;;;;;;;24.97;4.60;;;7.20;76.60;;;;;;5038823;28;20179;-88
2022/02/02 11:28:27;;;;;;;16.20;3.90;;;7.10;77.20;;;;;;5043908;28;20199;-88
2022/02/02 11:31:18;;;;;;;22.30;4.63;;;7.00;76.30;;;;;;5038710;28;20180;-90
2022/02/02 11:33:53;;;;;;;23.27;4.53;;;6.80;77.20;;;;;;5039595;28;20276;-91
2022/02/02 11:36:26;;;;;;;22.77;3.90;;;6.70;78.20;;;;;;5038634;28;20531;-91
2022/02/02 11:38:54;;;;;;;25.83;5.10;;;6.80;78.30;;;;;;5047691;28;20597;-91
2022/02/02 11:44:10;;;;;;;26.77;5.00;;;6.80;78.70;;;;;;5056810;28;20491;-89
2022/02/02 11:47:23;;;;;;;26.10;5.17;;;6.90;78.60;;;;;;5056290;28;20160;-89
2022/02/02 11:49:57;;;;;;;13.03;3.33;;;6.90;78.50;;;;;;5056168;28;20566;-89
2022/02/02 11:52:44;;;;;;;15.00;3.17;;;6.70;77.40;;;;;;5038226;28;20266;-89
2022/02/02 11:55:10;;;;;;;13.63;3.03;;;6.60;77.00;;;;;;5038264;28;20172;-89
2022/02/02 11:58:01;;;;;;;18.97;3.80;;;6.50;76.60;;;;;;5055725;28;20269;-89
2022/02/02 12:00:39;;;;;;;19.13;3.30;;;6.40;77.10;;;;;;5038105;28;20179;-89
2022/02/02 12:06:04;;;;;;;16.83;4.10;;;6.80;77.50;;;;;;5056108;28;20175;-89
2022/02/02 12:08:46;;;;;;;20.70;4.57;;;7.00;77.20;;;;;;5055653;28;20188;-89
2022/02/02 12:44:39;;;;;;;16.50;5.27;;;7.20;74.70;;;;;;5055460;28;20203;-89
2022/02/02 12:47:16;;;;;;;18.97;3.97;;;6.80;76.60;;;;;;5055209;28;20183;-88
2022/02/02 12:57:55;;;;;;;14.47;3.17;;;6.50;77.40;;;;;;5054925;28;20218;-89
2022/02/02 13:02:47;;;;;;;15.10;2.80;;;6.70;77.20;;;;;;5055100;28;20176;-90
2022/02/02 13:05:14;;;;;;;14.23;3.00;;;6.90;75.70;;;;;;5037050;28;20282;-89
2022/02/02 13:07:42;;;;;;;18.00;2.73;;;7.00;76.40;;;;;;5054581;28;20224;-89
2022/02/02 13:10:10;;;;;;;17.23;3.40;;;7.20;76.40;;;;;;5036766;28;20234;-89
2022/02/02 13:12:39;;;;;;;6.07;1.97;;;7.10;75.70;;;;;;5054236;28;20233;-89
2022/02/02 13:17:42;;;;;;;14.73;3.50;;;6.90;74.90;;;;;;5054536;28;20282;-89
2022/02/02 13:20:12;;;;;;;21.53;3.40;;;7.00;75.00;;;;;;5054436;28;20191;-89
2022/02/02 13:22:39;;;;;;;16.00;3.30;;;7.00;74.40;;;;;;5054227;28;20179;-89
2022/02/02 13:25:28;;;;;;;18.93;3.20;;;7.20;74.10;;;;;;5054858;28;20164;-89
2022/02/02 13:27:54;;;;;;;12.70;2.83;;;7.20;74.30;;;;;;5036249;28;20585;-89
2022/02/02 13:30:54;;;;;;;15.77;3.17;;;7.10;73.80;;;;;;5036625;28;20186;-89
2022/02/02 13:33:29;;;;;;;15.37;3.63;;;7.10;74.00;;;;;;5036544;28;20167;-89
2022/02/02 13:36:15;;;;;;;14.67;3.07;;;6.90;72.90;;;;;;5035915;28;20171;-89
2022/02/02 13:39:08;;;;;;;15.30;3.30;;;6.80;72.30;;;;;;5054645;28;20188;-89
2022/02/02 13:44:49;;;;;;;16.43;3.73;;;6.70;73.80;;;;;;5054600;28;20182;-89
2022/02/02 13:53:51;;;;;;;17.70;3.30;;;6.80;74.60;;;;;;5054076;28;20157;-89
2022/02/02 14:07:27;;;;;;;13.27;2.87;;;6.90;75.60;;;;;;5053781;28;20195;-89
2022/02/02 14:10:09;;;;;;;15.53;3.30;;;6.80;75.50;;;;;;5053857;28;20695;-89
2022/02/02 14:31:45;;;;;;;17.57;3.70;;;6.40;77.80;;;;;;5053737;28;20156;-89
2022/02/02 14:34:12;;;;;;;14.10;3.53;;;6.50;77.60;;;;;;5053107;28;20168;-89
2022/02/02 14:36:39;;;;;;;18.00;3.40;;;6.30;77.50;;;;;;5053139;28;20289;-89
2022/02/02 14:39:21;;;;;;;20.17;4.40;;;6.30;77.70;;;;;;5053103;28;20241;-89
2022/02/02 14:41:52;;;;;;;15.57;2.90;;;6.30;77.80;;;;;;5053105;28;20231;-89
2022/02/02 14:44:24;;;;;;;22.90;3.80;;;6.30;78.00;;;;;;5053194;28;20149;-89
2022/02/02 14:47:07;;;;;;;14.93;3.50;;;6.30;78.30;;;;;;5053066;28;20156;-89
2022/02/02 14:52:09;;;;;;;23.57;3.93;;;6.50;78.00;;;;;;5057184;28;20529;-88
2022/02/02 14:54:58;;;;;;;22.00;3.40;;;6.50;78.00;;;;;;5057138;28;20163;-89
2022/02/02 15:06:11;;;;;;;22.53;4.40;;;6.60;76.90;;;;;;5038145;28;20216;-91
2022/02/02 15:25:40;;;;;;;19.37;3.80;;;6.00;76.70;;;;;;5047774;28;20238;-91
2022/02/02 15:32:51;;;;;;;17.33;3.70;;;5.80;78.80;;;;;;5058013;28;20170;-92
2022/02/02 15:35:16;;;;;;;22.47;4.37;;;5.80;79.30;;;;;;5039604;28;20218;-91
2022/02/02 15:40:16;;;;;;;27.53;4.30;;;5.80;80.00;;;;;;5057847;28;20188;-92
2022/02/02 15:58:35;;;;;;;27.77;4.90;;;5.40;80.90;;;;;;5056712;28;20640;-91
2022/02/02 16:03:36;;;;;;;20.40;3.80;;;5.30;81.10;;;;;;5057588;28;20185;-91
2022/02/02 16:08:34;;;;;;;19.53;4.03;;;5.20;81.10;;;;;;5059163;28;20196;-91
2022/02/02 16:11:34;;;;;;;21.57;4.03;;;5.20;81.20;;;;;;5040908;28;20261;-91
2022/02/02 16:14:03;;;;;;;24.70;4.63;;;5.10;81.20;;;;;;5053681;28;20273;-89
2022/02/02 16:19:33;;;;;;;28.17;4.30;;;5.00;81.40;;;;;;5056969;28;20194;-90
2022/02/02 16:24:48;;;;;;;17.77;3.63;;;4.90;81.50;;;;;;5074708;28;20149;-92
2022/02/02 16:37:57;;;;;;;18.03;3.53;;;4.70;81.80;;;;;;5058038;28;20208;-90
2022/02/02 16:40:31;;;;;;;20.53;4.00;;;4.80;82.00;;;;;;5040630;28;20284;-91
2022/02/02 16:45:33;;;;;;;19.33;4.13;;;4.70;82.50;;;;;;5067840;28;20169;-91
2022/02/02 16:47:59;;;;;;;22.77;3.87;;;4.60;82.80;;;;;;5047076;28;20177;-90
2022/02/02 16:50:30;;;;;;;21.80;4.57;;;4.60;82.80;;;;;;5040196;28;20181;-90
2022/02/02 16:53:00;;;;;;;25.43;4.93;;;4.60;82.90;;;;;;5040534;28;20173;-90
2022/02/02 16:58:05;;;;;;;22.50;3.97;;;4.50;83.70;;;;;;5055740;28;20192;-91
2022/02/02 17:24:24;;;;;;;28.00;5.03;;;4.50;83.90;;;;;;5055975;28;20211;-90
2022/02/02 17:33:08;;;;;;;20.80;4.53;;;4.20;85.00;;;;;;5058255;28;20173;-91
2022/02/02 17:35:48;;;;;;;19.17;3.97;;;4.10;84.90;;;;;;5039783;28;20317;-91
2022/02/02 17:38:25;;;;;;;30.07;4.70;;;4.10;85.00;;;;;;5039646;28;20279;-92
2022/02/02 18:18:51;;;;;;;42.17;6.00;;;3.50;87.20;;;;;;5064382;28;20300;-92
2022/02/02 18:21:19;;;;;;;24.73;5.13;;;3.40;87.40;;;;;;5046792;28;20156;-91
2022/02/02 18:23:59;;;;;;;23.27;4.50;;;3.50;87.50;;;;;;5061814;28;20191;-92
2022/02/02 18:36:53;;;;;;;26.70;6.13;;;3.30;87.80;;;;;;5078579;28;20259;-90
2022/02/02 18:47:29;;;;;;;27.27;5.00;;;3.40;87.70;;;;;;5060213;28;20170;-92
2022/02/02 18:57:56;;;;;;;27.20;4.80;;;3.50;87.30;;;;;;5063460;28;20204;-92
2022/02/02 19:00:44;;;;;;;29.50;5.87;;;3.40;87.10;;;;;;5042355;28;20214;-91
2022/02/02 19:52:37;;;;;;;39.80;7.43;;;2.60;90.20;;;;;;5056969;28;20586;-91
2022/02/02 19:55:20;;;;;;;28.57;5.83;;;2.80;90.30;;;;;;5038605;28;20581;-91
2022/02/02 20:11:19;;;;;;;30.27;5.30;;;2.70;90.20;;;;;;5033124;28;20191;-91
2022/02/02 20:13:45;;;;;;;31.27;5.43;;;2.60;90.30;;;;;;5038603;28;20186;-90
2022/02/02 20:16:10;;;;;;;22.07;4.67;;;2.60;90.30;;;;;;5043210;28;20225;-89
2022/02/02 20:18:40;;;;;;;30.23;5.37;;;2.60;90.50;;;;;;5045275;28;20207;-92
2022/02/02 20:21:09;;;;;;;36.77;6.07;;;2.60;90.50;;;;;;5045386;28;20183;-91
2022/02/02 20:23:41;;;;;;;39.20;7.33;;;2.60;90.50;;;;;;5045729;28;20199;-90
2022/02/02 20:26:09;;;;;;;26.83;4.57;;;2.60;90.60;;;;;;5046228;28;20168;-90
2022/02/02 20:28:34;;;;;;;34.13;5.47;;;2.60;90.60;;;;;;5044753;28;20201;-91
2022/02/02 20:31:00;;;;;;;39.43;5.50;;;2.50;90.60;;;;;;5043891;28;20176;-91
2022/02/02 20:33:27;;;;;;;26.13;5.23;;;2.50;90.60;;;;;;5044227;28;20678;-92
2022/02/02 20:35:53;;;;;;;31.27;5.97;;;2.50;90.70;;;;;;5043154;28;20648;-91
2022/02/02 20:38:19;;;;;;;29.17;5.33;;;2.40;90.80;;;;;;5046774;28;20222;-90
2022/02/02 20:40:45;;;;;;;28.17;5.47;;;2.50;91.00;;;;;;5043050;28;20176;-91
2022/02/02 20:43:14;;;;;;;39.50;5.73;;;2.50;91.10;;;;;;5046565;28;20177;-90
2022/02/02 21:02:48;;;;;;;32.27;6.37;;;2.80;91.50;;;;;;5055816;28;20158;-92
2022/02/02 21:04:57;;;;;;;35.17;5.93;;;2.80;91.70;;;;;;5061187;28;20182;-92
2022/02/02 21:07:32;;;;;;;34.70;5.97;;;3.00;91.80;;;;;;5040954;28;20181;-92
2022/02/02 21:10:05;;;;;;;39.33;5.10;;;3.20;91.70;;;;;;5038269;28;20636;-91
2022/02/02 21:15:25;;;;;;;40.00;6.30;;;3.20;91.30;;;;;;5057107;28;20171;-92
2022/02/02 21:17:53;;;;;;;27.87;4.83;;;3.20;91.30;;;;;;5040707;28;20194;-91
2022/02/02 21:20:41;;;;;;;35.60;6.37;;;3.20;91.20;;;;;;5042956;28;20253;-91
2022/02/02 21:23:30;;;;;;;42.93;7.10;;;3.00;91.10;;;;;;5044366;28;20164;-92
2022/02/02 21:28:24;;;;;;;24.50;5.30;;;2.80;91.60;;;;;;5063238;28;20202;-91
2022/02/02 21:30:50;;;;;;;46.43;7.67;;;2.70;91.90;;;;;;5038517;23;20693;-89
2022/02/02 21:33:16;;;;;;;29.77;5.03;;;2.80;92.00;;;;;;4997308;28;20201;-92
2022/02/02 21:35:45;;;;;;;29.00;6.20;;;2.80;92.00;;;;;;4997760;28;20262;-90
2022/02/02 21:38:29;;;;;;;32.75;6.10;;;2.90;92.00;;;;;;4996980;28;20848;-92
2022/02/02 21:40:57;;;;;;;32.37;5.60;;;2.90;92.10;;;;;;4985659;28;20336;-92
2022/02/02 21:43:24;;;;;;;39.73;6.77;;;2.90;91.90;;;;;;4977670;28;20640;-91
2022/02/02 21:45:50;;;;;;;27.53;5.73;;;3.00;91.90;;;;;;4977770;28;20173;-91
2022/02/02 21:48:17;;;;;;;22.30;5.40;;;3.00;91.90;;;;;;4977640;28;20176;-91
2022/02/02 21:50:54;;;;;;;15.40;4.20;;;3.00;91.90;;;;;;4977672;28;20203;-92
2022/02/02 21:53:20;;;;;;;19.40;4.33;;;3.00;92.00;;;;;;4977928;28;20658;-91
2022/02/02 21:55:46;;;;;;;24.60;5.13;;;3.00;92.00;;;;;;4977834;28;20241;-91
2022/02/02 21:58:12;;;;;;;19.70;4.07;;;3.00;92.00;;;;;;4978095;28;20583;-92
2022/02/02 22:00:40;;;;;;;35.77;5.57;;;3.00;92.10;;;;;;4977385;28;20268;-92
2022/02/02 22:03:07;;;;;;;28.73;6.37;;;3.00;92.20;;;;;;4977873;28;20189;-92
2022/02/02 22:05:34;;;;;;;31.80;5.83;;;3.10;92.20;;;;;;4977457;28;20549;-92
2022/02/02 22:08:00;;;;;;;20.87;4.90;;;3.10;92.10;;;;;;4977596;28;20185;-91
2022/02/02 22:10:25;;;;;;;30.23;5.50;;;3.10;92.20;;;;;;4977554;28;20207;-91
2022/02/02 22:12:51;;;;;;;28.73;5.37;;;3.10;92.20;;;;;;4977839;28;20284;-91
2022/02/02 22:15:26;;;;;;;23.27;4.77;;;3.00;92.20;;;;;;4977797;28;20179;-92
2022/02/02 22:17:52;;;;;;;23.63;5.53;;;3.00;92.20;;;;;;4978106;28;20597;-92
2022/02/02 22:20:18;;;;;;;27.53;5.27;;;3.00;92.30;;;;;;4979450;28;20328;-91
2022/02/02 22:22:45;;;;;;;29.93;5.13;;;3.00;92.30;;;;;;4994535;28;20169;-91
2022/02/02 22:25:11;;;;;;;29.53;5.17;;;3.10;92.20;;;;;;4977231;28;20185;-91
2022/02/02 22:27:37;;;;;;;24.20;5.40;;;3.10;92.20;;;;;;4977208;28;20176;-92
2022/02/02 22:30:04;;;;;;;43.93;9.93;;;3.10;92.20;;;;;;4976810;28;20211;-91
2022/02/02 22:32:30;;;;;;;15.17;4.50;;;3.10;92.20;;;;;;4976681;28;20182;-91
2022/02/02 22:34:56;;;;;;;30.20;5.20;;;3.10;92.20;;;;;;4977373;28;20174;-92
2022/02/02 22:37:22;;;;;;;18.40;4.77;;;3.00;92.20;;;;;;4977170;28;20285;-92
2022/02/02 22:39:51;;;;;;;28.00;4.83;;;3.00;92.40;;;;;;4977840;28;20624;-91
2022/02/02 22:42:18;;;;;;;29.60;6.07;;;3.00;92.50;;;;;;4977064;28;20181;-91
2022/02/02 22:44:44;;;;;;;21.00;4.67;;;3.10;92.60;;;;;;4976495;28;20180;-91
2022/02/02 22:47:11;;;;;;;27.10;5.27;;;3.20;92.50;;;;;;4977026;28;20192;-91
2022/02/02 22:49:39;;;;;;;37.40;4.80;;;3.20;92.50;;;;;;4994428;28;20221;-91
2022/02/02 22:52:06;;;;;;;23.90;6.17;;;3.30;92.50;;;;;;4994203;28;20176;-90
2022/02/02 22:54:31;;;;;;;31.00;5.33;;;3.30;92.40;;;;;;4976892;28;20258;-91
2022/02/02 22:56:57;;;;;;;22.33;4.30;;;3.30;92.40;;;;;;4976773;28;20284;-91
2022/02/02 22:59:23;;;;;;;24.27;4.40;;;3.30;92.30;;;;;;4976467;28;20327;-91
2022/02/02 23:01:56;;;;;;;23.03;4.93;;;3.40;92.10;;;;;;4976738;28;20203;-91
2022/02/02 23:04:23;;;;;;;24.40;4.43;;;3.50;92.00;;;;;;4977739;28;20167;-91
2022/02/02 23:06:48;;;;;;;22.10;4.33;;;3.50;91.80;;;;;;4977007;28;20178;-91
2022/02/02 23:09:14;;;;;;;28.13;4.47;;;3.60;91.70;;;;;;4978180;28;20234;-91
2022/02/02 23:11:40;;;;;;;29.70;6.17;;;3.60;91.60;;;;;;4980663;28;20737;-91
2022/02/02 23:14:06;;;;;;;27.30;4.77;;;3.60;91.50;;;;;;4980663;28;20209;-91